Time;durP1;ratioP1;P1;durP2;ratioP2;P2;SDS_P1;SDS_P2;PMS_P1;PMS_P2;Temp;Humidity;BMP_temperature;BMP_pressure;BME280_temperature;BME280_humidity;BME280_pressure;Samples;Min_cycle;Max_cycle;Signal;HPM_P1;HPM_P2
2022/08/03 00:01:26;;;;;;;;;32.20;31.20;;;;;;;;5268962;28;8786;-75
2022/08/03 00:03:57;;;;;;;;;35.20;33.20;;;;;;;;5233984;28;8774;-75
2022/08/03 00:06:47;;;;;;;;;36.20;32.40;;;;;;;;5236358;28;8820;-75
2022/08/03 00:09:18;;;;;;;;;34.60;31.80;;;;;;;;5250433;28;8799;-75
2022/08/03 00:12:08;;;;;;;;;33.80;32.00;;;;;;;;5236447;28;8770;-75
2022/08/03 00:14:39;;;;;;;;;34.40;32.40;;;;;;;;5246089;28;8866;-75
2022/08/03 00:17:10;;;;;;;;;36.60;33.40;;;;;;;;5234525;28;8782;-76
2022/08/03 00:19:41;;;;;;;;;31.00;30.60;;;;;;;;5256926;28;8770;-77
2022/08/03 00:22:12;;;;;;;;;29.60;29.60;;;;;;;;5241035;28;8847;-76
2022/08/03 00:24:43;;;;;;;;;32.40;31.40;;;;;;;;5250091;28;8777;-76
2022/08/03 00:27:14;;;;;;;;;31.25;30.50;;;;;;;;5233242;28;8808;-77
2022/08/03 00:29:45;;;;;;;;;28.40;27.80;;;;;;;;5249446;28;8827;-76
2022/08/03 00:32:16;;;;;;;;;26.20;25.40;;;;;;;;5249026;28;8786;-76
2022/08/03 00:34:47;;;;;;;;;20.60;20.60;;;;;;;;5266758;28;8786;-75
2022/08/03 00:37:19;;;;;;;;;25.00;25.00;;;;;;;;5233346;28;8797;-75
2022/08/03 00:39:50;;;;;;;;;23.00;22.75;;;;;;;;5233229;28;8835;-75
2022/08/03 00:42:21;;;;;;;;;24.80;23.60;;;;;;;;5266458;28;9728;-76
2022/08/03 00:44:52;;;;;;;;;19.60;19.60;;;;;;;;5249818;28;8789;-76
2022/08/03 00:47:23;;;;;;;;;19.75;19.75;;;;;;;;5250686;28;8817;-76
2022/08/03 00:49:54;;;;;;;;;17.75;17.75;;;;;;;;5249910;28;8774;-76
2022/08/03 00:52:25;;;;;;;;;21.00;21.00;;;;;;;;5233105;28;8874;-76
2022/08/03 00:54:56;;;;;;;;;20.75;20.75;;;;;;;;5232930;28;8785;-76
2022/08/03 00:57:46;;;;;;;;;21.40;21.40;;;;;;;;5267756;28;8769;-76
2022/08/03 01:00:20;;;;;;;;;21.50;21.00;;;;;;;;5216453;28;8781;-76
2022/08/03 01:02:51;;;;;;;;;22.00;22.00;;;;;;;;5249398;28;8806;-77
2022/08/03 01:05:54;;;;;;;;;16.75;16.75;;;;;;;;5235918;28;8769;-77
2022/08/03 01:08:28;;;;;;;;;24.40;24.40;;;;;;;;5216393;28;8849;-78
2022/08/03 01:11:11;;;;;;;;;19.40;19.40;;;;;;;;5232728;28;9644;-77
2022/08/03 01:14:03;;;;;;;;;19.60;19.40;;;;;;;;5249367;28;8821;-77
2022/08/03 01:16:44;;;;;;;;;22.60;22.60;;;;;;;;5216260;28;8813;-76
2022/08/03 01:19:24;;;;;;;;;20.60;20.40;;;;;;;;5232802;28;8793;-76
2022/08/03 01:22:09;;;;;;;;;22.20;21.80;;;;;;;;5232121;28;8793;-75
2022/08/03 01:24:50;;;;;;;;;26.40;26.40;;;;;;;;5215941;28;8816;-75
2022/08/03 01:27:25;;;;;;;;;25.00;24.60;;;;;;;;5215980;28;8979;-75
2022/08/03 01:30:14;;;;;;;;;26.25;26.25;;;;;;;;5233286;28;8798;-75
2022/08/03 01:32:55;;;;;;;;;33.40;32.00;;;;;;;;5232409;28;9600;-75
2022/08/03 01:35:26;;;;;;;;;30.20;30.00;;;;;;;;5249254;28;8798;-74
2022/08/03 01:38:01;;;;;;;;;33.40;32.00;;;;;;;;5232260;28;8805;-74
2022/08/03 01:40:33;;;;;;;;;33.60;31.80;;;;;;;;5232438;28;8781;-74
2022/08/03 01:43:06;;;;;;;;;32.60;31.60;;;;;;;;5266851;28;8777;-74
2022/08/03 01:45:38;;;;;;;;;28.40;28.40;;;;;;;;5237015;28;8806;-75
2022/08/03 01:48:11;;;;;;;;;35.80;33.20;;;;;;;;5236527;28;8802;-75
2022/08/03 01:50:44;;;;;;;;;29.40;29.40;;;;;;;;5236465;28;8824;-77
2022/08/03 01:53:15;;;;;;;;;25.60;25.60;;;;;;;;5220289;28;8802;-78
2022/08/03 01:55:49;;;;;;;;;35.40;32.00;;;;;;;;5236178;28;8790;-78
2022/08/03 01:58:21;;;;;;;;;17.75;17.75;;;;;;;;5236426;28;8878;-76
2022/08/03 02:00:58;;;;;;;;;18.00;18.00;;;;;;;;5219475;28;8842;-75
2022/08/03 02:03:30;;;;;;;;;21.25;21.25;;;;;;;;5236351;28;8789;-76
2022/08/03 02:06:02;;;;;;;;;21.00;21.00;;;;;;;;5236245;28;8777;-77
2022/08/03 02:08:33;;;;;;;;;19.25;19.25;;;;;;;;5236494;28;9559;-80
2022/08/03 02:11:05;;;;;;;;;25.25;25.00;;;;;;;;5236476;28;8796;-81
2022/08/03 02:13:57;;;;;;;;;25.00;25.00;;;;;;;;5255561;28;8753;-81
2022/08/03 02:16:48;;;;;;;;;24.25;24.25;;;;;;;;5238747;28;8798;-82
2022/08/03 02:19:19;;;;;;;;;18.75;18.75;;;;;;;;5252853;28;8785;-82
2022/08/03 02:21:50;;;;;;;;;22.50;22.50;;;;;;;;5235725;28;9646;-79
2022/08/03 02:24:21;;;;;;;;;21.25;21.25;;;;;;;;5252717;28;8821;-81
2022/08/03 02:26:54;;;;;;;;;17.75;17.75;;;;;;;;5272698;28;8810;-81
2022/08/03 02:29:28;;;;;;;;;17.25;17.25;;;;;;;;5245602;28;8814;-80
2022/08/03 02:32:03;;;;;;;;;16.25;16.25;;;;;;;;5232661;28;8800;-75
2022/08/03 02:34:35;;;;;;;;;14.25;14.25;;;;;;;;5239630;28;8806;-75
2022/08/03 02:37:09;;;;;;;;;16.25;16.25;;;;;;;;5256262;28;8799;-77
2022/08/03 02:39:41;;;;;;;;;17.25;17.25;;;;;;;;5273172;28;8793;-76
2022/08/03 02:42:14;;;;;;;;;15.75;15.75;;;;;;;;5291269;28;8817;-76
2022/08/03 02:44:47;;;;;;;;;18.25;18.25;;;;;;;;5239570;28;8813;-79
2022/08/03 02:47:20;;;;;;;;;19.75;19.75;;;;;;;;5236655;28;8956;-77
2022/08/03 02:49:53;;;;;;;;;14.50;14.50;;;;;;;;5235393;28;8778;-79
2022/08/03 02:52:25;;;;;;;;;15.25;15.25;;;;;;;;5238040;28;8826;-75
2022/08/03 02:54:58;;;;;;;;;17.25;17.25;;;;;;;;5272677;28;8783;-77
2022/08/03 02:57:30;;;;;;;;;15.75;15.75;;;;;;;;5256073;28;8779;-83
2022/08/03 03:00:02;;;;;;;;;16.00;16.00;;;;;;;;5239453;28;8828;-76
2022/08/03 03:02:33;;;;;;;;;16.00;16.00;;;;;;;;5256501;28;8778;-75
2022/08/03 03:05:05;;;;;;;;;18.00;18.00;;;;;;;;5273031;28;9497;-79
2022/08/03 03:07:36;;;;;;;;;14.25;14.25;;;;;;;;5235081;28;8830;-76
2022/08/03 03:10:08;;;;;;;;;14.50;14.50;;;;;;;;5218553;28;8862;-76
2022/08/03 03:12:40;;;;;;;;;26.75;26.75;;;;;;;;5234681;28;8908;-76
2022/08/03 03:15:11;;;;;;;;;65.40;53.40;;;;;;;;5244559;28;9532;-76
2022/08/03 03:17:43;;;;;;;;;76.40;71.00;;;;;;;;5251446;28;8837;-80
2022/08/03 03:20:36;;;;;;;;;63.80;52.40;;;;;;;;5251997;28;8804;-81
2022/08/03 03:23:07;;;;;;;;;48.60;41.00;;;;;;;;5244643;28;8837;-77
2022/08/03 03:25:41;;;;;;;;;45.80;38.00;;;;;;;;5219511;28;8870;-87
2022/08/03 03:28:14;;;;;;;;;27.25;27.25;;;;;;;;5266015;28;8899;-78
2022/08/03 03:30:45;;;;;;;;;24.50;24.25;;;;;;;;5290879;28;8887;-81
2022/08/03 03:33:17;;;;;;;;;27.50;27.50;;;;;;;;5240991;28;8803;-83
2022/08/03 03:35:50;;;;;;;;;35.00;32.60;;;;;;;;5274698;28;8807;-82
2022/08/03 03:38:21;;;;;;;;;28.00;27.75;;;;;;;;5263212;28;9559;-82
2022/08/03 03:40:52;;;;;;;;;31.80;30.80;;;;;;;;5291492;28;8779;-80
2022/08/03 03:43:24;;;;;;;;;32.25;31.25;;;;;;;;5270267;28;8821;-79
2022/08/03 03:45:56;;;;;;;;;27.00;27.00;;;;;;;;5278011;28;8829;-79
2022/08/03 03:48:27;;;;;;;;;23.25;23.25;;;;;;;;5276784;28;8817;-81
2022/08/03 03:51:00;;;;;;;;;18.75;18.75;;;;;;;;5270227;28;8865;-80
2022/08/03 03:53:31;;;;;;;;;8.75;8.75;;;;;;;;5218532;28;8766;-81
2022/08/03 03:56:01;;;;;;;;;19.67;19.67;;;;;;;;5251050;28;8928;-80
2022/08/03 03:58:32;;;;;;;;;15.75;15.75;;;;;;;;5245633;28;9056;-81
2022/08/03 04:01:03;;;;;;;;;15.00;15.00;;;;;;;;5270339;28;8801;-80
2022/08/03 04:03:34;;;;;;;;;16.00;16.00;;;;;;;;5259071;28;8944;-81
2022/08/03 04:12:04;;;;;;;;;24.00;23.25;;;;;;;;5251357;28;8852;-81
2022/08/03 04:14:36;;;;;;;;;17.00;17.00;;;;;;;;5268533;28;8782;-81
2022/08/03 04:17:08;;;;;;;;;16.50;16.50;;;;;;;;5233950;28;8809;-81
2022/08/03 04:19:41;;;;;;;;;17.00;17.00;;;;;;;;5234437;28;8794;-81
2022/08/03 04:22:16;;;;;;;;;18.25;18.25;;;;;;;;5233683;28;8816;-81
2022/08/03 04:24:52;;;;;;;;;11.50;11.50;;;;;;;;5233747;28;8770;-78
2022/08/03 04:27:25;;;;;;;;;15.50;15.50;;;;;;;;5271090;28;9543;-79
2022/08/03 04:29:57;;;;;;;;;16.00;15.50;;;;;;;;5268154;28;8786;-80
2022/08/03 04:32:29;;;;;;;;;13.75;13.75;;;;;;;;5250099;28;8907;-80
2022/08/03 04:35:00;;;;;;;;;10.50;10.50;;;;;;;;5250315;28;8812;-79
2022/08/03 04:37:37;;;;;;;;;12.75;12.75;;;;;;;;5233574;28;8820;-79
2022/08/03 04:40:10;;;;;;;;;14.50;14.50;;;;;;;;5250092;28;8792;-79
2022/08/03 04:42:41;;;;;;;;;13.00;13.00;;;;;;;;5250280;28;8820;-80
2022/08/03 04:45:13;;;;;;;;;14.00;14.00;;;;;;;;5233776;28;8814;-80
2022/08/03 04:47:44;;;;;;;;;11.75;11.75;;;;;;;;5233486;28;9548;-80
2022/08/03 04:50:16;;;;;;;;;9.25;9.25;;;;;;;;5233451;28;8931;-79
2022/08/03 04:52:47;;;;;;;;;10.75;10.75;;;;;;;;5233577;28;9477;-79
2022/08/03 04:55:28;;;;;;;;;9.67;9.67;;;;;;;;5250354;28;8809;-79
2022/08/03 04:57:59;;;;;;;;;10.75;10.75;;;;;;;;5233179;28;10666;-79
2022/08/03 05:00:50;;;;;;;;;23.25;20.75;;;;;;;;5267739;28;8801;-78
2022/08/03 05:03:21;;;;;;;;;15.25;15.25;;;;;;;;5233249;28;8816;-80
2022/08/03 05:05:53;;;;;;;;;10.50;10.50;;;;;;;;5216707;28;9698;-79
2022/08/03 05:08:24;;;;;;;;;7.75;7.75;;;;;;;;5233329;28;8836;-80
2022/08/03 05:10:56;;;;;;;;;12.25;12.25;;;;;;;;5267455;28;8785;-81
2022/08/03 05:13:27;;;;;;;;;7.00;7.00;;;;;;;;5250019;28;8798;-81
2022/08/03 05:15:58;;;;;;;;;8.00;8.00;;;;;;;;5232958;28;9608;-81
2022/08/03 05:18:28;;;;;;;;;5.67;5.67;;;;;;;;5232671;28;8798;-81
2022/08/03 05:20:59;;;;;;;;;6.50;6.50;;;;;;;;5216581;28;10418;-81
2022/08/03 05:23:30;;;;;;;;;11.67;11.33;;;;;;;;5232680;28;8821;-80
2022/08/03 05:26:01;;;;;;;;;15.67;15.67;;;;;;;;5232996;28;8794;-82
2022/08/03 05:28:32;;;;;;;;;9.00;9.00;;;;;;;;5249139;28;11568;-82
2022/08/03 05:31:03;;;;;;;;;9.25;9.25;;;;;;;;5249308;28;8793;-82
2022/08/03 05:33:34;;;;;;;;;9.33;9.33;;;;;;;;5216199;28;8778;-82
2022/08/03 05:36:05;;;;;;;;;7.33;7.33;;;;;;;;5217922;28;9953;-81
2022/08/03 05:38:36;;;;;;;;;11.25;11.25;;;;;;;;5242584;28;11660;-81
2022/08/03 05:41:07;;;;;;;;;9.25;9.25;;;;;;;;5246200;28;8782;-81
2022/08/03 05:43:38;;;;;;;;;9.00;9.00;;;;;;;;5260294;28;8801;-81
2022/08/03 05:46:27;;;;;;;;;8.50;8.50;;;;;;;;5239164;28;9253;-82
2022/08/03 05:48:58;;;;;;;;;6.33;6.33;;;;;;;;5249531;28;8794;-79
2022/08/03 05:51:29;;;;;;;;;6.67;6.67;;;;;;;;5249677;28;8790;-82
2022/08/03 05:54:00;;;;;;;;;8.33;8.33;;;;;;;;5233382;28;10268;-81
2022/08/03 05:56:31;;;;;;;;;13.50;13.50;;;;;;;;5233020;28;9110;-79
2022/08/03 05:59:02;;;;;;;;;15.75;15.75;;;;;;;;5232302;28;8825;-79
2022/08/03 06:01:33;;;;;;;;;13.00;13.00;;;;;;;;5248979;28;8781;-79
2022/08/03 06:04:22;;;;;;;;;8.25;8.25;;;;;;;;5234788;28;8817;-79
2022/08/03 06:07:11;;;;;;;;;11.25;11.25;;;;;;;;5266840;28;9572;-78
2022/08/03 06:09:42;;;;;;;;;7.33;7.33;;;;;;;;5248970;28;8777;-79
2022/08/03 06:12:13;;;;;;;;;9.25;9.25;;;;;;;;5215929;28;8924;-80
2022/08/03 06:14:44;;;;;;;;;15.00;15.00;;;;;;;;5232054;28;8922;-80
2022/08/03 06:17:44;;;;;;;;;11.75;11.75;;;;;;;;5248684;28;11451;-80
2022/08/03 06:20:16;;;;;;;;;14.50;14.50;;;;;;;;5233477;28;8892;-80
2022/08/03 06:22:48;;;;;;;;;9.00;9.00;;;;;;;;5232090;28;9633;-80
2022/08/03 06:25:19;;;;;;;;;5.75;5.75;;;;;;;;5232280;28;8790;-80
2022/08/03 06:27:50;;;;;;;;;5.00;5.00;;;;;;;;5267051;28;8846;-80
2022/08/03 06:30:21;;;;;;;;;7.00;7.00;;;;;;;;5249918;28;8794;-80
2022/08/03 06:32:52;;;;;;;;;5.00;5.00;;;;;;;;5219461;28;8793;-81
2022/08/03 06:35:23;;;;;;;;;8.00;8.00;;;;;;;;5235825;28;8802;-81
2022/08/03 06:37:54;;;;;;;;;6.50;6.50;;;;;;;;5219284;28;8789;-81
2022/08/03 06:40:32;;;;;;;;;4.50;4.50;;;;;;;;5235723;28;8769;-81
2022/08/03 06:43:03;;;;;;;;;2.75;2.75;;;;;;;;5270202;28;8902;-81
2022/08/03 06:45:34;;;;;;;;;3.00;3.00;;;;;;;;5235815;28;8916;-82
2022/08/03 06:48:06;;;;;;;;;5.00;5.00;;;;;;;;5235600;28;8904;-81
2022/08/03 06:50:39;;;;;;;;;3.50;3.50;;;;;;;;5219423;28;8782;-81
2022/08/03 06:53:10;;;;;;;;;5.00;5.00;;;;;;;;5235685;28;8851;-81
2022/08/03 06:55:42;;;;;;;;;10.00;9.50;;;;;;;;5270178;28;8931;-81
2022/08/03 06:58:13;;;;;;;;;5.00;5.00;;;;;;;;5235648;28;8836;-81
2022/08/03 07:00:44;;;;;;;;;6.00;6.00;;;;;;;;5235369;28;8806;-81
2022/08/03 07:03:15;;;;;;;;;5.25;5.25;;;;;;;;5235367;28;8836;-81
2022/08/03 07:05:46;;;;;;;;;7.00;7.00;;;;;;;;5218586;28;8790;-80
2022/08/03 07:08:17;;;;;;;;;3.00;3.00;;;;;;;;5251713;28;8825;-79
2022/08/03 07:10:48;;;;;;;;;10.50;10.50;;;;;;;;5270046;28;8789;-81
2022/08/03 07:13:19;;;;;;;;;4.25;4.25;;;;;;;;5251977;28;8828;-81
2022/08/03 07:15:49;;;;;;;;;18.25;18.25;;;;;;;;5218412;28;8833;-80
2022/08/03 07:18:20;;;;;;;;;5.00;5.00;;;;;;;;5234826;28;8871;-81
2022/08/03 07:20:52;;;;;;;;;3.50;3.50;;;;;;;;5218489;28;8781;-81
2022/08/03 07:23:23;;;;;;;;;9.25;9.25;;;;;;;;5234814;28;8844;-81
2022/08/03 07:25:53;;;;;;;;;4.25;4.25;;;;;;;;5269647;28;8770;-81
2022/08/03 07:28:24;;;;;;;;;9.67;9.67;;;;;;;;5251466;28;8817;-81
2022/08/03 07:30:55;;;;;;;;;6.33;6.33;;;;;;;;5234781;28;8770;-81
2022/08/03 07:33:26;;;;;;;;;4.33;4.33;;;;;;;;5236031;28;8877;-81
2022/08/03 07:36:15;;;;;;;;;5.00;5.00;;;;;;;;5253884;28;8786;-82
2022/08/03 07:39:05;;;;;;;;;16.00;16.00;;;;;;;;5248648;28;8792;-81
2022/08/03 07:41:36;;;;;;;;;8.75;8.75;;;;;;;;5252163;28;8781;-81
2022/08/03 07:44:07;;;;;;;;;5.25;5.25;;;;;;;;5218673;28;8838;-81
2022/08/03 07:46:56;;;;;;;;;5.25;5.25;;;;;;;;5237245;28;8813;-81
2022/08/03 07:49:27;;;;;;;;;2.00;2.00;;;;;;;;5234375;28;8812;-81
2022/08/03 07:54:48;;;;;;;;;4.00;4.00;;;;;;;;5234350;28;10117;-81
2022/08/03 07:57:18;;;;;;;;;4.00;4.00;;;;;;;;5234331;28;8798;-81
2022/08/03 07:59:49;;;;;;;;;4.25;4.25;;;;;;;;5250752;28;8782;-81
2022/08/03 08:02:20;;;;;;;;;4.33;4.33;;;;;;;;5217527;28;8839;-81
2022/08/03 08:04:51;;;;;;;;;4.33;4.33;;;;;;;;5269398;28;10075;-81
2022/08/03 08:07:22;;;;;;;;;4.25;4.25;;;;;;;;5217633;28;11450;-81
2022/08/03 08:09:53;;;;;;;;;3.00;3.00;;;;;;;;5234279;28;8810;-81
2022/08/03 08:12:24;;;;;;;;;3.00;3.00;;;;;;;;5217216;28;9568;-81
2022/08/03 08:14:55;;;;;;;;;3.00;3.00;;;;;;;;5233681;28;8797;-81
2022/08/03 08:17:26;;;;;;;;;0.00;0.00;;;;;;;;5250587;28;8778;-82
2022/08/03 08:19:57;;;;;;;;;2.67;2.67;;;;;;;;5233730;28;9734;-82
2022/08/03 08:22:27;;;;;;;;;2.00;2.00;;;;;;;;5234396;28;11334;-80
2022/08/03 08:24:58;;;;;;;;;3.00;3.00;;;;;;;;5238118;28;9502;-70
2022/08/03 08:27:29;;;;;;;;;2.67;2.67;;;;;;;;5246777;28;9201;-87
2022/08/03 08:30:03;;;;;;;;;4.75;4.75;;;;;;;;5214510;28;11514;-86
2022/08/03 08:32:36;;;;;;;;;5.00;5.00;;;;;;;;5230078;28;8921;-87
2022/08/03 08:35:07;;;;;;;;;4.00;4.00;;;;;;;;5212834;28;8783;-84
2022/08/03 08:37:39;;;;;;;;;0.00;0.00;;;;;;;;5229673;28;8862;-85
2022/08/03 08:40:12;;;;;;;;;4.00;4.00;;;;;;;;5229539;28;8817;-85
2022/08/03 08:42:43;;;;;;;;;3.00;3.00;;;;;;;;5246402;28;9564;-87
2022/08/03 08:45:14;;;;;;;;;2.00;2.00;;;;;;;;5229432;28;8791;-86
2022/08/03 08:47:46;;;;;;;;;3.00;3.00;;;;;;;;5236725;28;8892;-79
2022/08/03 08:50:18;;;;;;;;;3.00;3.00;;;;;;;;5229423;28;8824;-83
2022/08/03 08:52:52;;;;;;;;;3.00;3.00;;;;;;;;5245701;28;8780;-78
2022/08/03 08:55:23;;;;;;;;;3.00;3.00;;;;;;;;5241314;28;8823;-81
2022/08/03 08:58:00;;;;;;;;;2.50;2.50;;;;;;;;5266939;28;8814;-83
2022/08/03 09:00:31;;;;;;;;;2.00;2.00;;;;;;;;5266598;28;8776;-80
2022/08/03 09:03:02;;;;;;;;;5.00;5.00;;;;;;;;5260925;28;8818;-78
2022/08/03 09:05:37;;;;;;;;;5.75;5.75;;;;;;;;5241246;28;11560;-83
2022/08/03 09:08:08;;;;;;;;;3.75;3.75;;;;;;;;5267682;28;8959;-85
2022/08/03 09:10:39;;;;;;;;;5.00;5.00;;;;;;;;5245836;28;9541;-86
2022/08/03 09:13:10;;;;;;;;;5.00;5.00;;;;;;;;5253295;28;8800;-81
2022/08/03 09:16:14;;;;;;;;;5.75;5.75;;;;;;;;5248175;28;8815;-84
2022/08/03 09:18:47;;;;;;;;;5.00;5.00;;;;;;;;5263544;28;8842;-83
2022/08/03 09:21:25;;;;;;;;;3.75;3.75;;;;;;;;5262019;28;8791;-82
2022/08/03 09:23:57;;;;;;;;;2.50;2.50;;;;;;;;5232977;28;8824;-82
2022/08/03 09:26:29;;;;;;;;;4.00;4.00;;;;;;;;5252462;28;8793;-84
2022/08/03 09:29:01;;;;;;;;;3.75;3.75;;;;;;;;5275970;28;8959;-84
2022/08/03 09:31:32;;;;;;;;;5.00;5.00;;;;;;;;5228114;28;8851;-88
2022/08/03 09:34:04;;;;;;;;;3.00;3.00;;;;;;;;5212652;28;8803;-86
2022/08/03 09:36:45;;;;;;;;;93.75;89.00;;;;;;;;5265307;28;8915;-82
2022/08/03 09:39:17;;;;;;;;;5.75;5.75;;;;;;;;5245518;28;8813;-82
2022/08/03 09:42:03;;;;;;;;;3.50;3.50;;;;;;;;5228516;28;8890;-86
2022/08/03 09:44:36;;;;;;;;;4.00;4.00;;;;;;;;5214835;28;9627;-93
2022/08/03 09:47:10;;;;;;;;;4.25;4.25;;;;;;;;5258928;28;8816;-90
2022/08/03 09:49:55;;;;;;;;;4.75;4.75;;;;;;;;5254667;28;8804;-90
2022/08/03 09:52:31;;;;;;;;;5.50;5.50;;;;;;;;5235297;28;8915;-91
2022/08/03 09:55:07;;;;;;;;;4.75;4.75;;;;;;;;5252468;28;8772;-93
2022/08/03 09:57:39;;;;;;;;;4.25;4.25;;;;;;;;5265751;28;8799;-95
2022/08/03 10:00:12;;;;;;;;;3.25;3.25;;;;;;;;5229830;28;8779;-89
2022/08/03 10:02:43;;;;;;;;;3.00;3.00;;;;;;;;5250038;28;8779;-88
2022/08/03 10:05:14;;;;;;;;;3.00;3.00;;;;;;;;5254176;28;8782;-89
2022/08/03 10:07:46;;;;;;;;;3.00;3.00;;;;;;;;5258270;28;8819;-90
2022/08/03 10:10:18;;;;;;;;;5.25;5.25;;;;;;;;5277044;28;11110;-89
2022/08/03 10:12:49;;;;;;;;;3.25;3.25;;;;;;;;5242492;28;8772;-90
2022/08/03 10:15:20;;;;;;;;;4.00;4.00;;;;;;;;5276170;28;8787;-88
2022/08/03 10:17:51;;;;;;;;;7.00;7.00;;;;;;;;5276200;28;8807;-90
2022/08/03 10:20:22;;;;;;;;;10.75;10.75;;;;;;;;5252271;28;8785;-92
2022/08/03 10:22:54;;;;;;;;;5.25;5.25;;;;;;;;5257699;28;8939;-91
2022/08/03 10:25:30;;;;;;;;;3.25;3.25;;;;;;;;5251455;28;9517;-92
2022/08/03 10:28:04;;;;;;;;;9.50;9.50;;;;;;;;5216949;28;8973;-90
2022/08/03 10:30:36;;;;;;;;;4.75;4.75;;;;;;;;5232366;28;8786;-87
2022/08/03 10:33:12;;;;;;;;;5.00;5.00;;;;;;;;5232104;28;8772;-86
2022/08/03 10:35:43;;;;;;;;;4.00;4.00;;;;;;;;5249215;28;8791;-87
2022/08/03 10:38:19;;;;;;;;;6.25;6.25;;;;;;;;5232525;28;8803;-85
2022/08/03 10:40:53;;;;;;;;;3.50;3.50;;;;;;;;5250071;28;8787;-86
2022/08/03 10:43:26;;;;;;;;;5.50;5.50;;;;;;;;5215511;28;8780;-86
2022/08/03 10:45:58;;;;;;;;;6.00;6.00;;;;;;;;5249931;28;9540;-86
2022/08/03 10:48:29;;;;;;;;;8.00;8.00;;;;;;;;5231801;28;8814;-86
2022/08/03 10:51:00;;;;;;;;;4.25;4.25;;;;;;;;5248909;28;8787;-86
2022/08/03 10:53:39;;;;;;;;;4.00;4.00;;;;;;;;5249915;28;8787;-88
2022/08/03 10:59:47;;;;;;;;;7.00;7.00;;;;;;;;5248024;28;8803;-85
2022/08/03 11:02:18;;;;;;;;;6.00;6.00;;;;;;;;5231740;28;8775;-85
2022/08/03 11:05:08;;;;;;;;;4.67;4.67;;;;;;;;5231379;28;8868;-85
2022/08/03 11:07:40;;;;;;;;;4.75;4.75;;;;;;;;5231682;28;9447;-86
2022/08/03 11:10:28;;;;;;;;;3.00;2.25;;;;;;;;5253598;28;8759;-88
2022/08/03 11:13:19;;;;;;;;;5.25;5.25;;;;;;;;5260665;28;8787;-90
2022/08/03 11:15:52;;;;;;;;;4.75;4.75;;;;;;;;5246197;28;9593;-89
2022/08/03 11:18:23;;;;;;;;;4.00;4.00;;;;;;;;5240323;28;8876;-84
2022/08/03 11:20:55;;;;;;;;;0.00;0.00;;;;;;;;5232047;28;8791;-88
2022/08/03 11:23:46;;;;;;;;;5.00;5.00;;;;;;;;5248281;28;9595;-89
2022/08/03 11:26:35;;;;;;;;;4.00;4.00;;;;;;;;5247924;28;8779;-87
2022/08/03 11:29:24;;;;;;;;;3.00;3.00;;;;;;;;5237287;28;8938;-81
2022/08/03 11:31:56;;;;;;;;;3.33;3.33;;;;;;;;5247356;28;8906;-86
2022/08/03 11:34:27;;;;;;;;;5.75;5.75;;;;;;;;5247308;28;8810;-86
2022/08/03 11:37:17;;;;;;;;;4.00;4.00;;;;;;;;5234014;28;8796;-89
2022/08/03 11:40:06;;;;;;;;;3.00;3.00;;;;;;;;5250789;28;8800;-86
2022/08/03 11:42:37;;;;;;;;;3.00;3.00;;;;;;;;5230766;28;8827;-86
2022/08/03 11:45:08;;;;;;;;;4.00;4.00;;;;;;;;5255023;28;8814;-84
2022/08/03 11:47:40;;;;;;;;;4.25;4.25;;;;;;;;5247377;28;8818;-83
2022/08/03 11:50:11;;;;;;;;;3.75;3.25;;;;;;;;5248749;28;8789;-87
2022/08/03 11:52:42;;;;;;;;;65.20;54.80;;;;;;;;5247228;28;8799;-81
2022/08/03 11:55:14;;;;;;;;;4.50;4.50;;;;;;;;5250376;28;8950;-87
2022/08/03 11:57:46;;;;;;;;;2.75;2.75;;;;;;;;5237798;28;8802;-85
2022/08/03 12:00:24;;;;;;;;;2.25;2.25;;;;;;;;5244073;28;8804;-83
2022/08/03 12:02:56;;;;;;;;;2.75;2.75;;;;;;;;5230790;28;8787;-82
2022/08/03 12:05:38;;;;;;;;;1.75;1.75;;;;;;;;5214135;28;8809;-85
2022/08/03 12:08:10;;;;;;;;;2.25;2.25;;;;;;;;5246554;28;8803;-81
2022/08/03 12:10:46;;;;;;;;;0.00;0.00;;;;;;;;5233571;28;8831;-84
2022/08/03 12:13:18;;;;;;;;;6.25;6.25;;;;;;;;5246776;28;8955;-84
2022/08/03 12:15:52;;;;;;;;;4.50;4.50;;;;;;;;5250619;28;8846;-83
2022/08/03 12:18:24;;;;;;;;;8.75;8.75;;;;;;;;5233870;28;8803;-86
2022/08/03 12:21:03;;;;;;;;;11.50;11.50;;;;;;;;5250502;28;8791;-87
2022/08/03 12:23:35;;;;;;;;;5.00;5.00;;;;;;;;5240514;28;9374;-87
2022/08/03 12:26:07;;;;;;;;;4.75;4.75;;;;;;;;5233121;28;8787;-82
2022/08/03 12:28:45;;;;;;;;;39.40;34.60;;;;;;;;5225067;28;8827;-83
2022/08/03 12:31:16;;;;;;;;;14.50;14.50;;;;;;;;5253978;28;8776;-92
2022/08/03 12:34:06;;;;;;;;;10.00;10.00;;;;;;;;5255493;28;8968;-85
2022/08/03 12:36:37;;;;;;;;;5.00;5.00;;;;;;;;5212877;28;8812;-83
2022/08/03 12:39:10;;;;;;;;;2.00;2.00;;;;;;;;5229151;28;8787;-80
2022/08/03 12:41:41;;;;;;;;;3.00;3.00;;;;;;;;5229453;28;8794;-80
2022/08/03 12:44:12;;;;;;;;;5.00;5.00;;;;;;;;5229803;28;8820;-85
2022/08/03 12:46:43;;;;;;;;;3.00;3.00;;;;;;;;5233639;28;8788;-79
2022/08/03 12:49:17;;;;;;;;;3.00;3.00;;;;;;;;5247704;28;8900;-87
2022/08/03 12:51:51;;;;;;;;;13.00;13.00;;;;;;;;5228909;28;8852;-84
2022/08/03 12:54:24;;;;;;;;;11.75;11.75;;;;;;;;5245413;28;8802;-81
2022/08/03 12:57:14;;;;;;;;;5.50;5.50;;;;;;;;5235623;28;8807;-79
2022/08/03 12:59:47;;;;;;;;;13.00;13.00;;;;;;;;5252868;28;8802;-80
2022/08/03 13:02:19;;;;;;;;;6.25;6.25;;;;;;;;5257009;28;8805;-79
2022/08/03 13:04:50;;;;;;;;;5.25;5.25;;;;;;;;5218686;28;9517;-79
2022/08/03 13:07:21;;;;;;;;;6.25;6.25;;;;;;;;5231565;28;8875;-79
2022/08/03 13:09:54;;;;;;;;;4.00;4.00;;;;;;;;5228292;28;8767;-78
2022/08/03 13:12:25;;;;;;;;;4.25;4.25;;;;;;;;5244847;28;9613;-77
2022/08/03 13:14:58;;;;;;;;;5.00;5.00;;;;;;;;5228418;28;8932;-84
2022/08/03 13:17:28;;;;;;;;;3.25;3.25;;;;;;;;5231511;28;8798;-85
2022/08/03 13:19:59;;;;;;;;;3.00;3.00;;;;;;;;5230940;28;8800;-88
2022/08/03 13:22:49;;;;;;;;;3.25;3.25;;;;;;;;5249303;28;8825;-84
2022/08/03 13:25:20;;;;;;;;;6.25;6.25;;;;;;;;5214608;28;8792;-83
2022/08/03 13:27:52;;;;;;;;;6.50;6.50;;;;;;;;5215877;28;8856;-76
2022/08/03 13:30:23;;;;;;;;;5.00;5.00;;;;;;;;5233611;28;8795;-80
2022/08/03 13:33:13;;;;;;;;;5.00;5.00;;;;;;;;5232993;28;8793;-80
2022/08/03 13:35:44;;;;;;;;;3.00;3.00;;;;;;;;5214520;28;8897;-80
2022/08/03 13:38:15;;;;;;;;;3.00;3.00;;;;;;;;5214332;28;8798;-80
2022/08/03 13:40:46;;;;;;;;;3.00;3.00;;;;;;;;5220740;28;8935;-81
2022/08/03 13:43:17;;;;;;;;;4.50;4.50;;;;;;;;5237442;28;8816;-82
2022/08/03 13:46:06;;;;;;;;;13.75;13.75;;;;;;;;5246937;28;8826;-81
2022/08/03 13:48:37;;;;;;;;;19.00;19.00;;;;;;;;5240533;28;8822;-80
2022/08/03 13:51:08;;;;;;;;;15.25;15.25;;;;;;;;5222742;28;8804;-79
2022/08/03 13:53:39;;;;;;;;;16.33;16.33;;;;;;;;5254152;28;8816;-80
2022/08/03 13:56:10;;;;;;;;;12.67;12.67;;;;;;;;5253496;28;9722;-82
2022/08/03 13:58:41;;;;;;;;;5.50;5.50;;;;;;;;5220696;28;9081;-81
2022/08/03 14:01:30;;;;;;;;;5.25;5.25;;;;;;;;5253480;28;8815;-82
2022/08/03 14:04:20;;;;;;;;;3.25;3.25;;;;;;;;5277595;28;8791;-81
2022/08/03 14:07:13;;;;;;;;;8.25;8.25;;;;;;;;5271945;28;8813;-83
2022/08/03 14:09:44;;;;;;;;;5.00;5.00;;;;;;;;5237397;28;8809;-84
2022/08/03 14:12:15;;;;;;;;;7.00;7.00;;;;;;;;5255808;28;8795;-83
2022/08/03 14:14:46;;;;;;;;;9.33;9.33;;;;;;;;5240982;28;8790;-82
2022/08/03 14:17:17;;;;;;;;;5.67;5.67;;;;;;;;5241343;28;9279;-83
2022/08/03 14:19:48;;;;;;;;;6.50;6.50;;;;;;;;5257765;28;11466;-82
2022/08/03 14:22:19;;;;;;;;;5.00;5.00;;;;;;;;5292787;28;8797;-81
2022/08/03 14:24:49;;;;;;;;;2.00;2.00;;;;;;;;5236708;28;8986;-84
2022/08/03 14:27:21;;;;;;;;;4.50;4.50;;;;;;;;5220328;28;8824;-80
2022/08/03 14:29:52;;;;;;;;;4.25;4.25;;;;;;;;5220891;28;8790;-83
2022/08/03 14:32:22;;;;;;;;;68.75;63.25;;;;;;;;5253666;28;8774;-80
2022/08/03 14:35:12;;;;;;;;;39.20;34.60;;;;;;;;5273176;28;12316;-77
2022/08/03 14:37:42;;;;;;;;;13.75;13.75;;;;;;;;5275560;28;8799;-76
2022/08/03 14:40:13;;;;;;;;;14.00;14.00;;;;;;;;5276497;28;8795;-75
2022/08/03 14:42:45;;;;;;;;;8.00;8.00;;;;;;;;5295180;28;8823;-76
2022/08/03 14:45:34;;;;;;;;;7.25;7.25;;;;;;;;5276116;28;8927;-77
2022/08/03 14:48:05;;;;;;;;;8.00;8.00;;;;;;;;5252713;28;9707;-78
2022/08/03 14:50:36;;;;;;;;;5.50;5.50;;;;;;;;5249418;28;8944;-78
2022/08/03 14:53:07;;;;;;;;;7.50;7.50;;;;;;;;5240120;28;8940;-77
2022/08/03 14:55:56;;;;;;;;;4.50;4.50;;;;;;;;5269170;28;8851;-78
2022/08/03 14:58:27;;;;;;;;;7.00;7.00;;;;;;;;5265974;28;8810;-77
2022/08/03 15:00:58;;;;;;;;;4.75;4.75;;;;;;;;5272486;28;9597;-78
2022/08/03 15:03:47;;;;;;;;;4.00;4.00;;;;;;;;5273175;28;8813;-75
2022/08/03 15:06:18;;;;;;;;;4.00;4.00;;;;;;;;5271294;28;8807;-75
2022/08/03 15:08:49;;;;;;;;;4.00;4.00;;;;;;;;5242329;28;8839;-78
2022/08/03 15:11:20;;;;;;;;;3.50;3.50;;;;;;;;5234422;28;8797;-75
2022/08/03 15:13:51;;;;;;;;;5.00;5.00;;;;;;;;5243712;28;8799;-77
2022/08/03 15:16:22;;;;;;;;;6.00;6.00;;;;;;;;5234669;28;9436;-78
2022/08/03 15:18:53;;;;;;;;;3.50;3.50;;;;;;;;5255589;28;8811;-77
2022/08/03 15:21:24;;;;;;;;;5.75;5.75;;;;;;;;5271931;28;8962;-86
2022/08/03 15:23:55;;;;;;;;;8.25;8.25;;;;;;;;5290932;28;8818;-82
2022/08/03 15:26:26;;;;;;;;;9.00;9.00;;;;;;;;5242126;28;8841;-87
2022/08/03 15:28:57;;;;;;;;;9.75;9.75;;;;;;;;5238460;28;11504;-84
2022/08/03 15:31:28;;;;;;;;;7.25;7.25;;;;;;;;5234478;28;9547;-85
2022/08/03 15:33:59;;;;;;;;;6.00;6.00;;;;;;;;5234959;28;8818;-82
2022/08/03 15:36:31;;;;;;;;;7.75;7.75;;;;;;;;5236794;28;9716;-84
2022/08/03 15:39:02;;;;;;;;;3.00;3.00;;;;;;;;5267757;28;9578;-81